Map

Track Data

SID SEASON NUMBER BASIN SUBBASIN NAME ISO_TIME NATURE LAT LON WMO_WIND WMO_PRES WMO_AGENCY TRACK_TYPE DIST2LAND LANDFALL IFLAG USA_AGENCY USA_ATCF_ID USA_LAT USA_LON USA_RECORD USA_STATUS USA_WIND USA_PRES USA_SSHS USA_R34_NE USA_R34_SE USA_R34_SW USA_R34_NW USA_R50_NE USA_R50_SE USA_R50_SW USA_R50_NW USA_R64_NE USA_R64_SE USA_R64_SW USA_R64_NW USA_POCI USA_ROCI USA_RMW USA_EYE TOKYO_LAT TOKYO_LON TOKYO_GRADE TOKYO_WIND TOKYO_PRES TOKYO_R50_DIR TOKYO_R50_LONG TOKYO_R50_SHORT TOKYO_R30_DIR TOKYO_R30_LONG TOKYO_R30_SHORT TOKYO_LAND CMA_LAT CMA_LON CMA_CAT CMA_WIND CMA_PRES HKO_LAT HKO_LON HKO_CAT HKO_WIND HKO_PRES NEWDELHI_LAT NEWDELHI_LON NEWDELHI_GRADE NEWDELHI_WIND NEWDELHI_PRES NEWDELHI_CI NEWDELHI_DP NEWDELHI_POCI REUNION_LAT REUNION_LON REUNION_TYPE REUNION_WIND REUNION_PRES REUNION_TNUM REUNION_CI REUNION_RMW REUNION_R34_NE REUNION_R34_SE REUNION_R34_SW REUNION_R34_NW REUNION_R50_NE REUNION_R50_SE REUNION_R50_SW REUNION_R50_NW REUNION_R64_NE REUNION_R64_SE REUNION_R64_SW REUNION_R64_NW BOM_LAT BOM_LON BOM_TYPE BOM_WIND BOM_PRES BOM_TNUM BOM_CI BOM_RMW BOM_R34_NE BOM_R34_SE BOM_R34_SW BOM_R34_NW BOM_R50_NE BOM_R50_SE BOM_R50_SW BOM_R50_NW BOM_R64_NE BOM_R64_SE BOM_R64_SW BOM_R64_NW BOM_ROCI BOM_POCI BOM_EYE BOM_POS_METHOD BOM_PRES_METHOD NADI_LAT NADI_LON NADI_CAT NADI_WIND NADI_PRES WELLINGTON_LAT WELLINGTON_LON WELLINGTON_WIND WELLINGTON_PRES DS824_LAT DS824_LON DS824_STAGE DS824_WIND DS824_PRES TD9636_LAT TD9636_LON TD9636_STAGE TD9636_WIND TD9636_PRES TD9635_LAT TD9635_LON TD9635_WIND TD9635_PRES TD9635_ROCI NEUMANN_LAT NEUMANN_LON NEUMANN_CLASS NEUMANN_WIND NEUMANN_PRES MLC_LAT MLC_LON MLC_CLASS MLC_WIND MLC_PRES USA_GUST BOM_GUST BOM_GUST_PER REUNION_GUST REUNION_GUST_PER USA_SEAHGT USA_SEARAD_NE USA_SEARAD_SE USA_SEARAD_SW USA_SEARAD_NW STORM_SPEED STORM_DIR
1912195N25286 1912 29 NA NA NOT_NAMED 1912-07-12 12:00:00 TS 25.0000 -74.0000 35 hurdat_atl main 377 361 O_____________ hurdat_atl AL021912 25.0000 -74.0000 TS 35 0 9 330
1912195N25286 1912 29 NA NA NOT_NAMED 1912-07-12 15:00:00 TS 25.3976 -74.2497 main 366 348 P_____________ AL021912 25.3976 -74.2497 TS 35 0 9 331
1912195N25286 1912 29 NA NA NOT_NAMED 1912-07-12 18:00:00 TS 25.8000 -74.5000 35 hurdat_atl main 353 343 O_____________ hurdat_atl AL021912 25.8000 -74.5000 TS 35 0 9 331
1912195N25286 1912 29 NA NA NOT_NAMED 1912-07-12 21:00:00 TS 26.2075 -74.7501 main 343 338 P_____________ AL021912 26.2075 -74.7501 TS 35 0 9 331
1912195N25286 1912 29 NA NA NOT_NAMED 1912-07-13 00:00:00 TS 26.6000 -75.0000 35 hurdat_atl main 343 338 O_____________ hurdat_atl AL021912 26.6000 -75.0000 TS 35 0 9 329
1912195N25286 1912 29 NA NA NOT_NAMED 1912-07-13 03:00:00 TS 26.9575 -75.2502 main 343 342 P_____________ AL021912 26.9575 -75.2502 TS 35 0 8 328
1912195N25286 1912 29 NA NA NOT_NAMED 1912-07-13 06:00:00 TS 27.3000 -75.5000 35 hurdat_atl main 349 349 O_____________ hurdat_atl AL021912 27.3000 -75.5000 TS 35 0 8 327
1912195N25286 1912 29 NA NA NOT_NAMED 1912-07-13 09:00:00 TS 27.6650 -75.7575 main 363 363 P_____________ AL021912 27.6650 -75.7575 TS 35 0 8 328
1912195N25286 1912 29 NA NA NOT_NAMED 1912-07-13 12:00:00 TS 28.0000 -76.0000 35 hurdat_atl main 380 380 O_____________ hurdat_atl AL021912 28.0000 -76.0000 TS 35 0 7 326
1912195N25286 1912 29 NA NA NOT_NAMED 1912-07-13 15:00:00 TS 28.2725 -76.2152 main 399 395 P_____________ AL021912 28.2725 -76.2152 TS 35 0 6 325
1912195N25286 1912 29 NA NA NOT_NAMED 1912-07-13 18:00:00 TS 28.5000 -76.4000 35 hurdat_atl main 400 390 O_____________ hurdat_atl AL021912 28.5000 -76.4000 TS 35 0 5 326
1912195N25286 1912 29 NA NA NOT_NAMED 1912-07-13 21:00:00 TS 28.7074 -76.5502 main 380 371 P_____________ AL021912 28.7074 -76.5502 TS 35 0 5 327
1912195N25286 1912 29 NA NA NOT_NAMED 1912-07-14 00:00:00 TS 28.9000 -76.7000 35 hurdat_atl main 372 356 O_____________ hurdat_atl AL021912 28.9000 -76.7000 TS 35 0 5 323
1912195N25286 1912 29 NA NA NOT_NAMED 1912-07-14 03:00:00 TS 29.1000 -76.8925 main 356 342 P_____________ AL021912 29.1000 -76.8925 TS 35 0 5 319
1912195N25286 1912 29 NA NA NOT_NAMED 1912-07-14 06:00:00 TS 29.3000 -77.1000 35 hurdat_atl main 342 330 O_____________ hurdat_atl AL021912 29.3000 -77.1000 TS 35 0 5 320
1912195N25286 1912 29 NA NA NOT_NAMED 1912-07-14 09:00:00 TS 29.5074 -77.2851 main 330 320 P_____________ AL021912 29.5074 -77.2851 TS 35 0 5 319
1912195N25286 1912 29 NA NA NOT_NAMED 1912-07-14 12:00:00 TS 29.7000 -77.5000 35 hurdat_atl main 320 299 O_____________ hurdat_atl AL021912 29.7000 -77.5000 TS 35 0 5 309
1912195N25286 1912 29 NA NA NOT_NAMED 1912-07-14 15:00:00 TS 29.8500 -77.7777 main 299 286 P_____________ AL021912 29.8500 -77.7777 TS 37 0 6 300
1912195N25286 1912 29 NA NA NOT_NAMED 1912-07-14 18:00:00 TS 30.0000 -78.1000 40 hurdat_atl main 286 265 O_____________ hurdat_atl AL021912 30.0000 -78.1000 TS 40 0 7 301
1912195N25286 1912 29 NA NA NOT_NAMED 1912-07-14 21:00:00 TS 30.1848 -78.4277 main 270 247 P_____________ AL021912 30.1848 -78.4277 TS 40 0 7 303
1912195N25286 1912 29 NA NA NOT_NAMED 1912-07-15 00:00:00 TS 30.4000 -78.8000 40 hurdat_atl main 247 210 O_____________ hurdat_atl AL021912 30.4000 -78.8000 TS 40 0 8 304
1912195N25286 1912 29 NA NA NOT_NAMED 1912-07-15 03:00:00 TS 30.6499 -79.2275 main 210 158 P_____________ AL021912 30.6499 -79.2275 TS 40 0 9 303
1912195N25286 1912 29 NA NA NOT_NAMED 1912-07-15 06:00:00 TS 30.9000 -79.7000 40 hurdat_atl main 158 116 O_____________ hurdat_atl AL021912 30.9000 -79.7000 TS 40 0 10 302
1912195N25286 1912 29 NA NA NOT_NAMED 1912-07-15 09:00:00 TS 31.1475 -80.1725 main 106 56 P_____________ AL021912 31.1475 -80.1725 TS 42 0 9 295
1912195N25286 1912 29 NA NA NOT_NAMED 1912-07-15 12:00:00 TS 31.3000 -80.7000 45 hurdat_atl main 56 0 O_____________ hurdat_atl AL021912 31.3000 -80.7000 TS 45 0 10 279
1912195N25286 1912 29 NA NA NOT_NAMED 1912-07-15 15:00:00 TS 31.3000 -81.3000 45 hurdat_atl main 0 0 O_____________ hurdat_atl AL021912 31.3000 -81.3000 L TS 45 0 10 270
1912195N25286 1912 29 NA NA NOT_NAMED 1912-07-15 18:00:00 TS 31.3000 -81.9000 40 hurdat_atl main 0 0 O_____________ hurdat_atl AL021912 31.3000 -81.9000 TS 40 0 10 270
1912195N25286 1912 29 NA NA NOT_NAMED 1912-07-15 21:00:00 TS 31.2998 -82.5000 main 0 0 P_____________ AL021912 31.2998 -82.5000 TS 40 0 10 270
1912195N25286 1912 29 NA NA NOT_NAMED 1912-07-16 00:00:00 TS 31.3000 -83.1000 40 hurdat_atl main 0 0 O_____________ hurdat_atl AL021912 31.3000 -83.1000 TS 40 0 10 270
1912195N25286 1912 29 NA NA NOT_NAMED 1912-07-16 03:00:00 TS 31.2997 -83.7000 main 0 0 P_____________ AL021912 31.2997 -83.7000 TS 37 0 10 270
1912195N25286 1912 29 NA NA NOT_NAMED 1912-07-16 06:00:00 TS 31.3000 -84.3000 35 hurdat_atl main 0 0 O_____________ hurdat_atl AL021912 31.3000 -84.3000 TS 35 0 10 270
1912195N25286 1912 29 NA NA NOT_NAMED 1912-07-16 09:00:00 TS 31.2924 -84.9151 main 0 0 P_____________ AL021912 31.2924 -84.9151 TS 32 -1 10 270
1912195N25286 1912 29 NA NA NOT_NAMED 1912-07-16 12:00:00 TS 31.3000 -85.5000 30 hurdat_atl main 0 0 O_____________ hurdat_atl AL021912 31.3000 -85.5000 TD 30 -1 9 273
1912195N25286 1912 29 NA NA NOT_NAMED 1912-07-16 15:00:00 TS 31.3421 -86.0149 main 0 0 P_____________ AL021912 31.3421 -86.0149 TD 27 -1 9 277
1912195N25286 1912 29 NA NA NOT_NAMED 1912-07-16 18:00:00 TS 31.4000 -86.5000 25 hurdat_atl main 0 0 O_____________ hurdat_atl AL021912 31.4000 -86.5000 TD 25 -1 9 277
1912195N25286 1912 29 NA NA NOT_NAMED 1912-07-16 21:00:00 TS 31.4499 -87.0075 main 0 0 P_____________ AL021912 31.4499 -87.0075 TD 25 -1 9 277
1912195N25286 1912 29 NA NA NOT_NAMED 1912-07-17 00:00:00 TS 31.5000 -87.5000 25 hurdat_atl main 0 0 O_____________ hurdat_atl AL021912 31.5000 -87.5000 TD 25 -1 8 277
1912195N25286 1912 29 NA NA NOT_NAMED 1912-07-17 03:00:00 TS 31.5498 -87.9576 main 0 0 P_____________ AL021912 31.5498 -87.9576 TD 22 -1 8 277
1912195N25286 1912 29 NA NA NOT_NAMED 1912-07-17 06:00:00 TS 31.6000 -88.4000 20 hurdat_atl main 0 0 O_____________ hurdat_atl AL021912 31.6000 -88.4000 TD 20 -1 8 278
1912195N25286 1912 29 NA NA NOT_NAMED 1912-07-17 09:00:00 TS 31.6504 -88.8474 main 0 0 P_____________ AL021912 31.6504 -88.8474 TD 20 -1 8 277
1912195N25286 1912 29 NA NA NOT_NAMED 1912-07-17 12:00:00 TS 31.7000 -89.3000 20 hurdat_atl main 0 O_____________ hurdat_atl AL021912 31.7000 -89.3000 TD 20 -1 8 277

About IBTrACS Database

This database is a web-friendly format of International Best Track Archive for Climate Stewardship (IBTrACS), a global best track data archive curated by NOAA dating back to 1842.

Updated: 2021-10-08